Αναφορές METAR από Ελληνικά Αεροδρόμια

Σε αυτή τη σελίδα, μπορείτε να παρακολουθείτε τις αναφορές METAR που προέρχονται από τα κυριότερα αεροδρόμια της Ελλάδας. Το περιεχόμενο αποκωδικοποιείται, οπτικοποιείται και γίνεται κατανοητό από τον καθένα με τη χρήση του όμορφου δίγλωσσου γραφικού περιβάλλοντος του meteothes.gr!

Η αρχική κωδικοποιημένη αναφορά, συμπεριλαμβάνεται επίσης στο κάτω μέρος. Σε όποια καθεστερεί η ενημέρωση, το προειδοποιητικό μήνυμα "Μη ενημερωμένο METAR!" εμφανίζεται στο πάνω μέρος της με κόκκινα γράμματα.

Εχουν προστεθεί επίσης δύο αεροδρόμια από γειτονικές χώρες, την Οχρίδα(ΠΓΔΜ) και την Σόφια(Βουλγαρία) για να ελέγχουμε την εξέλιξη των ψυχρών εισβολών από τα Βόρεια!

LGTS - Thessaloniki/Makedonia-Elev 7m
Απόσταση από meteothes.gr: Ν 13km
Ενημερώθηκε: 15/04/2021 20:20
Αίθριος
Αίθριος
 Ανεμος από ΒΒΔ
Ανεμος: ΒΒΔ 22 km/h
Θερμοκρασία: 16°C
Σημ. Δρόσου: 2°C
Υγρασία: 39%
Βαρόμετρο: 1015 hPa
Συνθήκες: Αίθριος
Ορατότητα: πάνω από 10 km
2021/04/15 17:20 LGTS 151720Z 33012KT CAVOK 16/02 Q1015 NOSIG
LGAV - Athens/Elef. Venizelos-Elev 94m
Απόσταση από meteothes.gr: ΝΝΑ 312km
Ενημερώθηκε: 15/04/2021 20:20
Διάσπαρτα Nέφη
Διάσπαρτα Nέφη
 Ανεμος από ΑΝΑ
Ανεμος: ΑΝΑ 9 km/h
Θερμοκρασία: 15°C
Σημ. Δρόσου: 9°C
Υγρασία: 68%
Βαρόμετρο: 1015 hPa
Νέφωση: Διάσπαρτα Nέφη
Ορατότητα: 10 km
Λεπτομέρειες Νεφών: Διάσπαρτα Nέφη 914 m
2021/04/15 17:20 LGAV 151720Z 11005KT 9999 FEW030 15/09 Q1015 NOSIG
 
LGAL - Alexandroupolis-Elev 3m
Απόσταση από meteothes.gr: Α 251km
Ενημερώθηκε: 15/04/2021 20:20
Διάσπαρτα Nέφη
Διάσπαρτα Nέφη
 Ανεμος από ΑΒΑ
Ανεμος: ΑΒΑ 13 km/h
Θερμοκρασία: 12°C
Σημ. Δρόσου: 6°C
Υγρασία: 67%
Βαρόμετρο: 1016 hPa
Νέφωση: Διάσπαρτα Nέφη
Ορατότητα: 10 km
Λεπτομέρειες Νεφών: Διάσπαρτα Nέφη 914 m
2021/04/15 17:20 LGAL 151720Z 06007KT 9999 FEW030 12/06 Q1016
LGKV - Kavala/Crysoupolis-Elev 5m
Απόσταση από meteothes.gr: ΑΒΑ 144km
Ενημερώθηκε: 15/04/2021 20:20
Διάσπαρτα Nέφη
Διάσπαρτα Nέφη
 Ανεμος από άπνοια
Ανεμος: άπνοια
Θερμοκρασία: 13°C
Σημ. Δρόσου: 7°C
Υγρασία: 67%
Βαρόμετρο: 1015 hPa
Νέφωση: Διάσπαρτα Nέφη
Ορατότητα: 10 km
Λεπτομέρειες Νεφών: Διάσπαρτα Nέφη 914 m
2021/04/15 17:20 LGKV 151720Z 00000KT 9999 FEW030 13/07 Q1015
 
LGSK - Skiathos Island-Elev 15m
Απόσταση από meteothes.gr: ΝΝΑ 168km
Ενημερώθηκε: 15/04/2021 17:50
ΜΗ Ενημερωμένο METAR!
Αίθριος
Αίθριος
 Ανεμος από Β
Ανεμος: Β 11 km/h
Θερμοκρασία: 15°C
Σημ. Δρόσου: 5°C
Υγρασία: 51%
Βαρόμετρο: 1015 hPa
Συνθήκες: Αίθριος
Ορατότητα: πάνω από 10 km
2021/04/15 14:50 LGSK 151450Z 35006KT CAVOK 15/05 Q1015
LGLM - Limnos Island-Elev 5m
Απόσταση από meteothes.gr: ΑΝΑ 210km
Ενημερώθηκε: 15/04/2021 20:20
Διάσπαρτα Nέφη
Διάσπαρτα Nέφη
 Ανεμος από άπνοια
Ανεμος: άπνοια
Θερμοκρασία: 12°C
Σημ. Δρόσου: 9°C
Υγρασία: 82%
Βαρόμετρο: 1015 hPa
Νέφωση: Διάσπαρτα Nέφη
Ορατότητα: 10 km
Λεπτομέρειες Νεφών: Διάσπαρτα Nέφη 457 m
2021/04/15 17:20 LGLM 151720Z 00000KT 9999 FEW015 12/09 Q1015
 
LGMT - Mitilini Island-Elev 17m
Απόσταση από meteothes.gr: ΑΝΑ 358km
Ενημερώθηκε: 15/04/2021 20:20
Μερικώς νεφελώδης
Μερικώς νεφελώδης
 Ανεμος από ΝΔ
Ανεμος: ΝΔ 11 km/h
Θερμοκρασία: 16°C
Σημ. Δρόσου: 11°C
Υγρασία: 72%
Βαρόμετρο: 1015 hPa
Νέφωση: Μερικώς νεφελώδης
Ορατότητα: 10 km
Λεπτομέρειες Νεφών: Μερικώς νεφελώδης 762 m
2021/04/15 17:20 LGMT 151720Z 22006KT 9999 SCT025 16/11 Q1015
LGSY - Skiros Island-Elev 15m
Απόσταση από meteothes.gr: ΝΑ 227km
Ενημερώθηκε: 15/04/2021 19:50
Αίθριος
Αίθριος
 Ανεμος από άπνοια
Ανεμος: άπνοια
Θερμοκρασία: 14°C
Σημ. Δρόσου: 12°C
Υγρασία: 88%
Βαρόμετρο: 1015 hPa
Συνθήκες: Αίθριος
Ορατότητα: πάνω από 10 km
2021/04/15 16:50 LGSY 151650Z 00000KT CAVOK 14/12 Q1015 RMK BKN180 BLU
 
LGKZ - Kozani-Elev 628m
Απόσταση από meteothes.gr: ΔΝΔ 102km
Ενημερώθηκε: 15/04/2021 20:20

 Ανεμος από ΒΒΔ
Ανεμος: ΒΒΔ 9 km/h
Θερμοκρασία: 12°C
Σημ. Δρόσου: -4°C
Υγρασία: 33%
Βαρόμετρο: 1014 hPa
2021/04/15 17:20 LGKZ 151720Z AUTO 34005KT 290V360 //// // ////// 12/M04 Q1014 RE//
LGIO - Ioannina-Elev 476m
Απόσταση από meteothes.gr: ΔΝΔ 209km
Ενημερώθηκε: 15/04/2021 20:20

 Ανεμος από μεταβλητός
Ανεμος: μεταβλητός 4 km/h
Θερμοκρασία: 10°C
Σημ. Δρόσου: 3°C
Υγρασία: 62%
Βαρόμετρο: 1016 hPa
2021/04/15 17:20 LGIO 151720Z AUTO VRB02KT //// // ////// 10/03 Q1016 RE//
 
LGZA - Zakinthos-Elev 3m
Απόσταση από meteothes.gr: ΝΝΔ 367km
Ενημερώθηκε: 15/04/2021 19:50
Κυρίως νεφελώδης
Κυρίως νεφελώδης
 Ανεμος από ΒΒΔ
Ανεμος: ΒΒΔ 13 km/h
Θερμοκρασία: 14°C
Σημ. Δρόσου: 5°C
Υγρασία: 55%
Βαρόμετρο: 1016 hPa
Νέφωση: Κυρίως νεφελώδης
Ορατότητα: 10 km
Λεπτομέρειες Νεφών: Διάσπαρτα Nέφη 610 m
Κυρίως νεφελώδης 2134 m
2021/04/15 16:50 LGZA 151650Z 33007KT 9999 FEW020 BKN070 14/05 Q1016
LGKR - Corfu Island-Elev 2m
Απόσταση από meteothes.gr: ΔΝΔ 282km
Ενημερώθηκε: 15/04/2021 20:20
Αίθριος
Αίθριος
 Ανεμος από ΔΒΔ
Ανεμος: ΔΒΔ 26 km/h
Θερμοκρασία: 14°C
Σημ. Δρόσου: 2°C
Υγρασία: 44%
Βαρόμετρο: 1017 hPa
Συνθήκες: Αίθριος
Ορατότητα: πάνω από 10 km
2021/04/15 17:20 LGKR 151720Z 30014KT CAVOK 14/02 Q1017 NOSIG
 
LGSO - Syros Island-Elev 72m
Απόσταση από meteothes.gr: ΝΝΑ 397km
Ενημερώθηκε: 15/04/2021 16:50
ΜΗ Ενημερωμένο METAR!
Μερικώς νεφελώδης
Μερικώς νεφελώδης
 Ανεμος από Α
Ανεμος: Α 15 km/h
Θερμοκρασία: 18°C
Σημ. Δρόσου: 10°C
Υγρασία: 60%
Βαρόμετρο: 1015 hPa
Νέφωση: Μερικώς νεφελώδης
Ορατότητα: 10 km
Λεπτομέρειες Νεφών: Μερικώς νεφελώδης 427 m
2021/04/15 13:50 LGSO 151350Z 08008KT 9999 SCT014 18/10 Q1015
LGMK - Mikonos Island-Elev 123m
Απόσταση από meteothes.gr: ΝΝΑ 412km
Ενημερώθηκε: 15/04/2021 19:50
Διάσπαρτα Nέφη
Διάσπαρτα Nέφη
 Ανεμος από ΒΒΑ
Ανεμος: ΒΒΑ 13 km/h
Θερμοκρασία: 16°C
Σημ. Δρόσου: 8°C
Υγρασία: 59%
Βαρόμετρο: 1015 hPa
Νέφωση: Διάσπαρτα Nέφη
Ορατότητα: 10 km
Λεπτομέρειες Νεφών: Διάσπαρτα Nέφη 305 m
2021/04/15 16:50 LGMK 151650Z 02007KT 9999 FEW010 16/08 Q1015
 
LGSR - Santorini Island-Elev 40m
Απόσταση από meteothes.gr: ΝΝΑ 520km
Ενημερώθηκε: 15/04/2021 20:20
Διάσπαρτα Nέφη
Διάσπαρτα Nέφη
 Ανεμος από ΝΑ
Ανεμος: ΝΑ 11 km/h
Θερμοκρασία: 16°C
Σημ. Δρόσου: 12°C
Υγρασία: 77%
Βαρόμετρο: 1015 hPa
Νέφωση: Διάσπαρτα Nέφη
Ορατότητα: 10 km
Λεπτομέρειες Νεφών: Διάσπαρτα Nέφη 610 m
2021/04/15 17:20 LGSR 151720Z 14006KT 9999 FEW020 16/12 Q1015
LGKL - Kalamata-Elev 8m
Απόσταση από meteothes.gr: Ν 405km
Ενημερώθηκε: 15/04/2021 20:20
Διάσπαρτα Nέφη
Διάσπαρτα Nέφη
 Ανεμος από Β
Ανεμος: Β 19 km/h
Θερμοκρασία: 15°C
Σημ. Δρόσου: 3°C
Υγρασία: 45%
Βαρόμετρο: 1015 hPa
Νέφωση: Διάσπαρτα Nέφη
Ορατότητα: 10 km
Λεπτομέρειες Νεφών: Διάσπαρτα Nέφη 2743 m
2021/04/15 17:20 LGKL 151720Z 01010KT 9999 FEW090 15/03 Q1015
 
LGIR - Iraklion/Crete-Elev 5m
Απόσταση από meteothes.gr: ΝΝΑ 622km
Ενημερώθηκε: 15/04/2021 20:20
Διάσπαρτα Nέφη
Διάσπαρτα Nέφη
 Ανεμος από άπνοια
Ανεμος: άπνοια
Θερμοκρασία: 16°C
Σημ. Δρόσου: 12°C
Υγρασία: 77%
Βαρόμετρο: 1015 hPa
Νέφωση: Διάσπαρτα Nέφη
Ορατότητα: 10 km
Λεπτομέρειες Νεφών: Διάσπαρτα Nέφη 2438 m
2021/04/15 17:20 LGIR 151720Z 00000KT 9999 FEW080 16/12 Q1015 NOSIG
LGRP - Rhodes-Elev 5m
Απόσταση από meteothes.gr: ΝΑ 649km
Ενημερώθηκε: 15/04/2021 20:20
Διάσπαρτα Nέφη
Διάσπαρτα Nέφη
 Ανεμος από ΝΑ
Ανεμος: ΝΑ 7 km/h
Θερμοκρασία: 17°C
Σημ. Δρόσου: 12°C
Υγρασία: 73%
Βαρόμετρο: 1016 hPa
Νέφωση: Διάσπαρτα Nέφη
Ορατότητα: 10 km
Λεπτομέρειες Νεφών: Διάσπαρτα Nέφη 549 m
2021/04/15 17:20 LGRP 151720Z 13004KT 9999 FEW018 17/12 Q1016 NOSIG
 
LWOH - Ohrid/FYROM-Elev 761m
Απόσταση από meteothes.gr: ΔΒΔ 188km
Ενημερώθηκε: 15/04/2021 20:30
Μερικώς νεφελώδης
Μερικώς νεφελώδης
 Ανεμος από μεταβλητός
Ανεμος: μεταβλητός 2 km/h
Θερμοκρασία: 6°C
Σημ. Δρόσου: -2°C
Υγρασία: 57%
Βαρόμετρο: 1016 hPa
Νέφωση: Μερικώς νεφελώδης
Ορατότητα: 10 km
Λεπτομέρειες Νεφών: Μερικώς νεφελώδης 1219 m
2021/04/15 17:30 LWOH 151730Z VRB01KT 9999 SCT040 06/M02 Q1016
LBSF - Sofia/Bulgaria-Elev 595m
Απόσταση από meteothes.gr: Β 227km
Ενημερώθηκε: 15/04/2021 20:30
Διάσπαρτα Nέφη
Διάσπαρτα Nέφη
 Ανεμος από Δ
Ανεμος: Δ 24 km/h
Θερμοκρασία: 4°C
Αίσθηση Ψύχρας: -1°C
Σημ. Δρόσου: -4°C
Υγρασία: 56%
Βαρόμετρο: 1019 hPa
Νέφωση: Διάσπαρτα Nέφη
Ορατότητα: 10 km
Λεπτομέρειες Νεφών: Διάσπαρτα Nέφη 2103 m
2021/04/15 17:30 LBSF 151730Z 28013KT 9999 FEW069 04/M04 Q1019 NOSIG

(*) Μερικές αναφορές παρουσιάζουν λιγότερα στοιχεία γιατί οι αρχικές είναι ελλιπείς ή έχουν λάθος μορφοποίηση!